sensor_id;sensor_type;location;lat;lon;timestamp;temperature;humidity
51559;DHT22;61650;48.882;2.092;2022-08-05T00:01:47;15.80;88.40
51559;DHT22;61650;48.882;2.092;2022-08-05T00:04:13;15.70;89.10
51559;DHT22;61650;48.882;2.092;2022-08-05T00:06:38;15.70;89.70
51559;DHT22;61650;48.882;2.092;2022-08-05T00:09:05;15.70;90.30
51559;DHT22;61650;48.882;2.092;2022-08-05T00:11:30;15.60;90.00
51559;DHT22;61650;48.882;2.092;2022-08-05T00:13:56;15.60;90.20
51559;DHT22;61650;48.882;2.092;2022-08-05T00:16:22;15.50;90.20
51559;DHT22;61650;48.882;2.092;2022-08-05T00:18:48;15.40;90.70
51559;DHT22;61650;48.882;2.092;2022-08-05T00:21:14;15.50;91.30
51559;DHT22;61650;48.882;2.092;2022-08-05T00:23:43;15.70;91.50
51559;DHT22;61650;48.882;2.092;2022-08-05T00:26:09;15.80;91.30
51559;DHT22;61650;48.882;2.092;2022-08-05T00:28:35;15.70;90.10
51559;DHT22;61650;48.882;2.092;2022-08-05T00:31:01;15.70;91.00
51559;DHT22;61650;48.882;2.092;2022-08-05T00:33:27;15.80;91.10
51559;DHT22;61650;48.882;2.092;2022-08-05T00:35:52;15.80;90.50
51559;DHT22;61650;48.882;2.092;2022-08-05T00:38:18;15.80;90.50
51559;DHT22;61650;48.882;2.092;2022-08-05T00:40:49;15.90;90.70
51559;DHT22;61650;48.882;2.092;2022-08-05T00:43:15;15.80;90.40
51559;DHT22;61650;48.882;2.092;2022-08-05T00:45:41;15.80;90.90
51559;DHT22;61650;48.882;2.092;2022-08-05T00:48:12;15.80;91.30
51559;DHT22;61650;48.882;2.092;2022-08-05T00:50:39;15.80;91.10
51559;DHT22;61650;48.882;2.092;2022-08-05T00:53:06;15.90;91.30
51559;DHT22;61650;48.882;2.092;2022-08-05T00:55:31;15.80;91.30
51559;DHT22;61650;48.882;2.092;2022-08-05T00:57:57;15.80;91.30
51559;DHT22;61650;48.882;2.092;2022-08-05T01:00:23;15.80;91.50
51559;DHT22;61650;48.882;2.092;2022-08-05T01:02:48;15.90;91.60
51559;DHT22;61650;48.882;2.092;2022-08-05T01:05:14;15.80;91.20
51559;DHT22;61650;48.882;2.092;2022-08-05T01:07:39;15.70;90.80
51559;DHT22;61650;48.882;2.092;2022-08-05T01:10:07;15.80;91.60
51559;DHT22;61650;48.882;2.092;2022-08-05T01:12:34;16.00;92.00
51559;DHT22;61650;48.882;2.092;2022-08-05T01:15:02;15.90;90.60
51559;DHT22;61650;48.882;2.092;2022-08-05T01:17:44;15.80;91.00
51559;DHT22;61650;48.882;2.092;2022-08-05T01:20:33;15.80;90.70
51559;DHT22;61650;48.882;2.092;2022-08-05T01:26:17;15.70;91.70
51559;DHT22;61650;48.882;2.092;2022-08-05T01:28:56;15.80;91.50
51559;DHT22;61650;48.882;2.092;2022-08-05T01:31:51;15.70;91.10
51559;DHT22;61650;48.882;2.092;2022-08-05T01:34:27;15.70;91.30
51559;DHT22;61650;48.882;2.092;2022-08-05T01:37:26;15.60;91.10
51559;DHT22;61650;48.882;2.092;2022-08-05T01:39:55;15.70;91.90
51559;DHT22;61650;48.882;2.092;2022-08-05T01:42:22;15.70;91.60
51559;DHT22;61650;48.882;2.092;2022-08-05T01:44:49;15.60;91.20
51559;DHT22;61650;48.882;2.092;2022-08-05T01:47:17;15.50;91.50
51559;DHT22;61650;48.882;2.092;2022-08-05T01:49:45;15.50;91.50
51559;DHT22;61650;48.882;2.092;2022-08-05T01:52:12;15.60;91.60
51559;DHT22;61650;48.882;2.092;2022-08-05T01:54:43;15.60;91.50
51559;DHT22;61650;48.882;2.092;2022-08-05T01:57:10;15.60;91.50
51559;DHT22;61650;48.882;2.092;2022-08-05T01:59:38;15.70;91.70
51559;DHT22;61650;48.882;2.092;2022-08-05T02:02:05;15.80;92.20
51559;DHT22;61650;48.882;2.092;2022-08-05T02:04:34;16.00;92.30
51559;DHT22;61650;48.882;2.092;2022-08-05T02:07:01;16.00;92.20
51559;DHT22;61650;48.882;2.092;2022-08-05T02:09:27;15.80;89.30
51559;DHT22;61650;48.882;2.092;2022-08-05T02:12:05;15.70;90.20
51559;DHT22;61650;48.882;2.092;2022-08-05T02:14:36;15.90;91.70
51559;DHT22;61650;48.882;2.092;2022-08-05T02:17:07;15.90;90.50
51559;DHT22;61650;48.882;2.092;2022-08-05T02:19:41;15.70;88.50
51559;DHT22;61650;48.882;2.092;2022-08-05T02:24:40;15.50;90.60
51559;DHT22;61650;48.882;2.092;2022-08-05T02:27:11;15.40;90.60
51559;DHT22;61650;48.882;2.092;2022-08-05T02:29:40;15.40;91.20
51559;DHT22;61650;48.882;2.092;2022-08-05T02:32:08;15.40;91.50
51559;DHT22;61650;48.882;2.092;2022-08-05T02:34:34;15.40;91.50
51559;DHT22;61650;48.882;2.092;2022-08-05T02:37:04;15.40;91.30
51559;DHT22;61650;48.882;2.092;2022-08-05T02:39:35;15.30;91.20
51559;DHT22;61650;48.882;2.092;2022-08-05T02:42:02;15.40;91.50
51559;DHT22;61650;48.882;2.092;2022-08-05T02:44:30;15.40;91.50
51559;DHT22;61650;48.882;2.092;2022-08-05T02:46:57;15.40;91.80
51559;DHT22;61650;48.882;2.092;2022-08-05T02:49:24;15.40;91.30
51559;DHT22;61650;48.882;2.092;2022-08-05T02:51:51;15.50;92.00
51559;DHT22;61650;48.882;2.092;2022-08-05T02:54:17;15.60;92.10
51559;DHT22;61650;48.882;2.092;2022-08-05T02:56:44;15.60;92.10
51559;DHT22;61650;48.882;2.092;2022-08-05T02:59:11;15.70;91.60
51559;DHT22;61650;48.882;2.092;2022-08-05T03:01:38;15.50;90.30
51559;DHT22;61650;48.882;2.092;2022-08-05T03:04:07;15.40;90.40
51559;DHT22;61650;48.882;2.092;2022-08-05T03:06:33;15.40;90.50
51559;DHT22;61650;48.882;2.092;2022-08-05T03:09:00;15.30;91.30
51559;DHT22;61650;48.882;2.092;2022-08-05T03:11:26;15.30;91.40
51559;DHT22;61650;48.882;2.092;2022-08-05T03:13:53;15.40;91.90
51559;DHT22;61650;48.882;2.092;2022-08-05T03:16:19;15.50;92.30
51559;DHT22;61650;48.882;2.092;2022-08-05T03:18:45;15.60;92.10
51559;DHT22;61650;48.882;2.092;2022-08-05T03:21:11;15.50;91.00
51559;DHT22;61650;48.882;2.092;2022-08-05T03:23:40;15.50;91.10
51559;DHT22;61650;48.882;2.092;2022-08-05T03:26:07;15.50;91.50
51559;DHT22;61650;48.882;2.092;2022-08-05T03:28:34;15.50;91.70
51559;DHT22;61650;48.882;2.092;2022-08-05T03:31:01;15.40;91.20
51559;DHT22;61650;48.882;2.092;2022-08-05T03:33:27;15.40;91.40
51559;DHT22;61650;48.882;2.092;2022-08-05T03:35:54;15.40;91.50
51559;DHT22;61650;48.882;2.092;2022-08-05T03:38:21;15.40;91.70
51559;DHT22;61650;48.882;2.092;2022-08-05T03:40:47;15.40;91.30
51559;DHT22;61650;48.882;2.092;2022-08-05T03:43:14;15.30;91.50
51559;DHT22;61650;48.882;2.092;2022-08-05T03:45:39;15.40;92.00
51559;DHT22;61650;48.882;2.092;2022-08-05T03:48:05;15.40;91.60
51559;DHT22;61650;48.882;2.092;2022-08-05T03:50:41;15.40;91.80
51559;DHT22;61650;48.882;2.092;2022-08-05T03:53:12;15.40;91.90
51559;DHT22;61650;48.882;2.092;2022-08-05T03:55:45;15.40;91.80
51559;DHT22;61650;48.882;2.092;2022-08-05T03:58:15;15.40;92.00
51559;DHT22;61650;48.882;2.092;2022-08-05T04:00:42;15.40;92.00
51559;DHT22;61650;48.882;2.092;2022-08-05T04:03:09;15.50;92.40
51559;DHT22;61650;48.882;2.092;2022-08-05T04:05:37;15.60;92.30
51559;DHT22;61650;48.882;2.092;2022-08-05T04:08:07;15.70;92.40
51559;DHT22;61650;48.882;2.092;2022-08-05T04:10:34;15.70;92.30
51559;DHT22;61650;48.882;2.092;2022-08-05T04:13:01;15.70;92.10
51559;DHT22;61650;48.882;2.092;2022-08-05T04:15:27;15.80;91.80
51559;DHT22;61650;48.882;2.092;2022-08-05T04:17:53;15.70;91.20
51559;DHT22;61650;48.882;2.092;2022-08-05T04:20:20;15.70;91.20
51559;DHT22;61650;48.882;2.092;2022-08-05T04:22:46;15.70;90.90
51559;DHT22;61650;48.882;2.092;2022-08-05T04:25:12;15.70;90.40
51559;DHT22;61650;48.882;2.092;2022-08-05T04:27:37;15.70;90.30
51559;DHT22;61650;48.882;2.092;2022-08-05T04:30:04;15.70;90.90
51559;DHT22;61650;48.882;2.092;2022-08-05T04:32:30;15.80;91.50
51559;DHT22;61650;48.882;2.092;2022-08-05T04:34:55;15.80;91.70
51559;DHT22;61650;48.882;2.092;2022-08-05T04:37:21;15.80;91.20
51559;DHT22;61650;48.882;2.092;2022-08-05T04:39:47;15.80;91.60
51559;DHT22;61650;48.882;2.092;2022-08-05T04:42:12;15.80;91.00
51559;DHT22;61650;48.882;2.092;2022-08-05T04:44:38;15.70;91.30
51559;DHT22;61650;48.882;2.092;2022-08-05T04:47:04;15.70;91.00
51559;DHT22;61650;48.882;2.092;2022-08-05T04:49:29;15.70;91.40
51559;DHT22;61650;48.882;2.092;2022-08-05T04:51:55;15.70;91.70
51559;DHT22;61650;48.882;2.092;2022-08-05T04:54:20;15.70;91.70
51559;DHT22;61650;48.882;2.092;2022-08-05T04:56:46;15.60;91.30
51559;DHT22;61650;48.882;2.092;2022-08-05T04:59:12;15.60;90.60
51559;DHT22;61650;48.882;2.092;2022-08-05T05:01:40;15.70;91.20
51559;DHT22;61650;48.882;2.092;2022-08-05T05:04:06;15.70;91.30
51559;DHT22;61650;48.882;2.092;2022-08-05T05:06:31;15.70;91.20
51559;DHT22;61650;48.882;2.092;2022-08-05T05:08:57;15.70;90.70
51559;DHT22;61650;48.882;2.092;2022-08-05T05:11:23;15.70;90.60
51559;DHT22;61650;48.882;2.092;2022-08-05T05:13:48;15.70;89.90
51559;DHT22;61650;48.882;2.092;2022-08-05T05:16:14;15.70;90.00
51559;DHT22;61650;48.882;2.092;2022-08-05T05:18:40;15.70;90.00
51559;DHT22;61650;48.882;2.092;2022-08-05T05:21:07;15.70;89.20
51559;DHT22;61650;48.882;2.092;2022-08-05T05:23:33;15.70;89.10
51559;DHT22;61650;48.882;2.092;2022-08-05T05:25:59;15.70;89.90
51559;DHT22;61650;48.882;2.092;2022-08-05T05:28:24;15.70;89.70
51559;DHT22;61650;48.882;2.092;2022-08-05T05:30:50;15.60;90.10
51559;DHT22;61650;48.882;2.092;2022-08-05T05:33:16;15.50;90.20
51559;DHT22;61650;48.882;2.092;2022-08-05T05:35:41;15.60;91.10
51559;DHT22;61650;48.882;2.092;2022-08-05T05:38:07;15.50;90.50
51559;DHT22;61650;48.882;2.092;2022-08-05T05:40:33;15.40;90.10
51559;DHT22;61650;48.882;2.092;2022-08-05T05:42:59;15.20;90.30
51559;DHT22;61650;48.882;2.092;2022-08-05T05:45:25;15.10;90.80
51559;DHT22;61650;48.882;2.092;2022-08-05T05:47:51;15.20;91.30
51559;DHT22;61650;48.882;2.092;2022-08-05T05:50:17;15.30;91.80
51559;DHT22;61650;48.882;2.092;2022-08-05T05:52:43;15.40;90.80
51559;DHT22;61650;48.882;2.092;2022-08-05T05:55:11;15.30;90.50
51559;DHT22;61650;48.882;2.092;2022-08-05T05:57:38;15.30;90.70
51559;DHT22;61650;48.882;2.092;2022-08-05T06:00:06;15.40;91.00
51559;DHT22;61650;48.882;2.092;2022-08-05T06:02:32;15.50;91.40
51559;DHT22;61650;48.882;2.092;2022-08-05T06:04:58;15.60;90.10
51559;DHT22;61650;48.882;2.092;2022-08-05T06:07:24;15.60;90.00
51559;DHT22;61650;48.882;2.092;2022-08-05T06:09:49;15.70;90.00
51559;DHT22;61650;48.882;2.092;2022-08-05T06:12:15;15.70;89.00
51559;DHT22;61650;48.882;2.092;2022-08-05T06:14:40;15.60;89.60
51559;DHT22;61650;48.882;2.092;2022-08-05T06:17:09;15.70;90.50
51559;DHT22;61650;48.882;2.092;2022-08-05T06:19:34;15.70;89.70
51559;DHT22;61650;48.882;2.092;2022-08-05T06:22:01;15.80;89.00
51559;DHT22;61650;48.882;2.092;2022-08-05T06:24:26;15.70;88.70
51559;DHT22;61650;48.882;2.092;2022-08-05T06:26:52;15.80;88.50
51559;DHT22;61650;48.882;2.092;2022-08-05T06:29:18;16.00;89.10
51559;DHT22;61650;48.882;2.092;2022-08-05T06:31:44;16.00;85.50
51559;DHT22;61650;48.882;2.092;2022-08-05T06:34:09;16.10;85.40
51559;DHT22;61650;48.882;2.092;2022-08-05T06:36:35;16.10;85.30
51559;DHT22;61650;48.882;2.092;2022-08-05T06:39:01;16.20;87.10
51559;DHT22;61650;48.882;2.092;2022-08-05T06:41:26;16.20;86.70
51559;DHT22;61650;48.882;2.092;2022-08-05T06:43:52;16.20;85.90
51559;DHT22;61650;48.882;2.092;2022-08-05T06:46:17;16.20;86.40
51559;DHT22;61650;48.882;2.092;2022-08-05T06:48:43;16.30;83.80
51559;DHT22;61650;48.882;2.092;2022-08-05T06:51:08;16.40;83.60
51559;DHT22;61650;48.882;2.092;2022-08-05T06:53:34;16.40;84.50
51559;DHT22;61650;48.882;2.092;2022-08-05T06:56:00;16.40;85.50
51559;DHT22;61650;48.882;2.092;2022-08-05T06:58:30;16.50;87.20
51559;DHT22;61650;48.882;2.092;2022-08-05T07:01:00;16.40;86.70
51559;DHT22;61650;48.882;2.092;2022-08-05T07:03:27;16.50;85.00
51559;DHT22;61650;48.882;2.092;2022-08-05T07:05:53;16.50;84.40
51559;DHT22;61650;48.882;2.092;2022-08-05T07:08:19;16.60;84.50
51559;DHT22;61650;48.882;2.092;2022-08-05T07:10:46;16.50;83.30
51559;DHT22;61650;48.882;2.092;2022-08-05T07:13:13;16.60;82.90
51559;DHT22;61650;48.882;2.092;2022-08-05T07:15:57;16.70;84.50
51559;DHT22;61650;48.882;2.092;2022-08-05T07:18:41;16.80;85.10
51559;DHT22;61650;48.882;2.092;2022-08-05T07:21:07;16.90;84.80
51559;DHT22;61650;48.882;2.092;2022-08-05T07:23:33;17.10;84.80
51559;DHT22;61650;48.882;2.092;2022-08-05T07:25:58;17.20;83.00
51559;DHT22;61650;48.882;2.092;2022-08-05T07:28:25;17.20;83.90
51559;DHT22;61650;48.882;2.092;2022-08-05T07:30:50;17.20;85.20
51559;DHT22;61650;48.882;2.092;2022-08-05T07:33:16;17.30;85.80
51559;DHT22;61650;48.882;2.092;2022-08-05T07:35:42;17.40;85.50
51559;DHT22;61650;48.882;2.092;2022-08-05T07:38:08;17.40;85.60
51559;DHT22;61650;48.882;2.092;2022-08-05T07:40:33;17.50;80.70
51559;DHT22;61650;48.882;2.092;2022-08-05T07:42:59;17.50;84.40
51559;DHT22;61650;48.882;2.092;2022-08-05T07:45:24;17.60;85.10
51559;DHT22;61650;48.882;2.092;2022-08-05T07:47:50;17.60;78.80
51559;DHT22;61650;48.882;2.092;2022-08-05T07:50:17;17.50;78.10
51559;DHT22;61650;48.882;2.092;2022-08-05T07:52:42;17.60;83.00
51559;DHT22;61650;48.882;2.092;2022-08-05T07:55:09;17.70;80.10
51559;DHT22;61650;48.882;2.092;2022-08-05T07:57:35;17.70;82.10
51559;DHT22;61650;48.882;2.092;2022-08-05T08:00:03;17.70;80.70
51559;DHT22;61650;48.882;2.092;2022-08-05T08:02:28;17.80;78.90
51559;DHT22;61650;48.882;2.092;2022-08-05T08:04:54;17.90;81.60
51559;DHT22;61650;48.882;2.092;2022-08-05T08:07:21;17.90;83.10
51559;DHT22;61650;48.882;2.092;2022-08-05T08:09:47;18.00;83.60
51559;DHT22;61650;48.882;2.092;2022-08-05T08:12:13;18.00;82.00
51559;DHT22;61650;48.882;2.092;2022-08-05T08:14:40;18.10;81.60
51559;DHT22;61650;48.882;2.092;2022-08-05T08:17:06;18.10;80.80
51559;DHT22;61650;48.882;2.092;2022-08-05T08:19:36;18.30;76.90
51559;DHT22;61650;48.882;2.092;2022-08-05T08:22:01;18.20;78.80
51559;DHT22;61650;48.882;2.092;2022-08-05T08:24:28;18.30;75.50
51559;DHT22;61650;48.882;2.092;2022-08-05T08:26:54;18.30;75.70
51559;DHT22;61650;48.882;2.092;2022-08-05T08:29:19;18.50;80.20
51559;DHT22;61650;48.882;2.092;2022-08-05T08:31:45;18.50;75.70
51559;DHT22;61650;48.882;2.092;2022-08-05T08:34:10;18.60;79.90
51559;DHT22;61650;48.882;2.092;2022-08-05T08:36:36;18.60;77.90
51559;DHT22;61650;48.882;2.092;2022-08-05T08:39:02;18.50;76.00
51559;DHT22;61650;48.882;2.092;2022-08-05T08:41:29;18.60;78.00
51559;DHT22;61650;48.882;2.092;2022-08-05T08:43:56;18.70;78.20
51559;DHT22;61650;48.882;2.092;2022-08-05T08:46:23;18.60;79.60
51559;DHT22;61650;48.882;2.092;2022-08-05T08:48:53;18.70;74.10
51559;DHT22;61650;48.882;2.092;2022-08-05T08:51:19;18.70;72.50
51559;DHT22;61650;48.882;2.092;2022-08-05T08:53:46;18.80;78.00
51559;DHT22;61650;48.882;2.092;2022-08-05T08:56:12;18.70;77.30
51559;DHT22;61650;48.882;2.092;2022-08-05T08:58:40;18.70;74.20
51559;DHT22;61650;48.882;2.092;2022-08-05T09:01:07;18.80;78.30
51559;DHT22;61650;48.882;2.092;2022-08-05T09:03:33;19.20;78.40
51559;DHT22;61650;48.882;2.092;2022-08-05T09:05:59;19.20;73.00
51559;DHT22;61650;48.882;2.092;2022-08-05T09:08:25;19.30;76.50
51559;DHT22;61650;48.882;2.092;2022-08-05T09:10:50;19.30;74.20
51559;DHT22;61650;48.882;2.092;2022-08-05T09:13:16;19.40;76.30
51559;DHT22;61650;48.882;2.092;2022-08-05T09:15:44;19.40;71.30
51559;DHT22;61650;48.882;2.092;2022-08-05T09:18:13;19.50;76.80
51559;DHT22;61650;48.882;2.092;2022-08-05T09:20:39;19.70;67.90
51559;DHT22;61650;48.882;2.092;2022-08-05T09:23:15;19.70;74.80
51559;DHT22;61650;48.882;2.092;2022-08-05T09:25:43;19.70;73.50
51559;DHT22;61650;48.882;2.092;2022-08-05T09:28:22;20.10;69.30
51559;DHT22;61650;48.882;2.092;2022-08-05T09:30:54;20.20;69.80
51559;DHT22;61650;48.882;2.092;2022-08-05T09:33:20;20.20;74.00
51559;DHT22;61650;48.882;2.092;2022-08-05T09:36:02;20.30;66.80
51559;DHT22;61650;48.882;2.092;2022-08-05T09:38:28;20.50;67.20
51559;DHT22;61650;48.882;2.092;2022-08-05T09:41:02;20.60;73.40
51559;DHT22;61650;48.882;2.092;2022-08-05T09:43:33;20.50;71.80
51559;DHT22;61650;48.882;2.092;2022-08-05T09:45:59;20.90;66.30
51559;DHT22;61650;48.882;2.092;2022-08-05T09:50:53;21.30;72.10
51559;DHT22;61650;48.882;2.092;2022-08-05T09:53:19;21.20;69.60
51559;DHT22;61650;48.882;2.092;2022-08-05T09:55:45;21.30;73.30
51559;DHT22;61650;48.882;2.092;2022-08-05T09:58:14;21.60;69.20
51559;DHT22;61650;48.882;2.092;2022-08-05T10:00:56;21.80;68.70
51559;DHT22;61650;48.882;2.092;2022-08-05T10:03:22;21.90;65.80
51559;DHT22;61650;48.882;2.092;2022-08-05T10:06:07;22.00;70.20
51559;DHT22;61650;48.882;2.092;2022-08-05T10:08:37;22.00;63.10
51559;DHT22;61650;48.882;2.092;2022-08-05T10:11:05;21.90;70.50
51559;DHT22;61650;48.882;2.092;2022-08-05T10:13:39;21.90;68.90
51559;DHT22;61650;48.882;2.092;2022-08-05T10:16:06;21.80;70.20
51559;DHT22;61650;48.882;2.092;2022-08-05T10:18:32;21.70;59.70
51559;DHT22;61650;48.882;2.092;2022-08-05T10:21:02;21.80;59.50
51559;DHT22;61650;48.882;2.092;2022-08-05T10:23:36;21.70;65.00
51559;DHT22;61650;48.882;2.092;2022-08-05T10:26:08;21.60;58.80
51559;DHT22;61650;48.882;2.092;2022-08-05T10:28:35;21.70;62.20
51559;DHT22;61650;48.882;2.092;2022-08-05T10:31:01;22.10;65.40
51559;DHT22;61650;48.882;2.092;2022-08-05T10:33:28;22.40;67.00
51559;DHT22;61650;48.882;2.092;2022-08-05T10:35:55;22.50;65.80
51559;DHT22;61650;48.882;2.092;2022-08-05T10:38:23;22.50;67.10
51559;DHT22;61650;48.882;2.092;2022-08-05T10:45:58;22.30;62.80
51559;DHT22;61650;48.882;2.092;2022-08-05T10:48:29;22.30;66.10
51559;DHT22;61650;48.882;2.092;2022-08-05T10:51:05;22.40;65.80
51559;DHT22;61650;48.882;2.092;2022-08-05T10:53:40;22.30;66.30
51559;DHT22;61650;48.882;2.092;2022-08-05T10:56:14;22.40;56.30
51559;DHT22;61650;48.882;2.092;2022-08-05T10:59:01;22.70;59.30
51559;DHT22;61650;48.882;2.092;2022-08-05T11:01:39;22.70;56.80
51559;DHT22;61650;48.882;2.092;2022-08-05T11:04:15;22.60;61.10
51559;DHT22;61650;48.882;2.092;2022-08-05T11:09:27;22.60;56.40
51559;DHT22;61650;48.882;2.092;2022-08-05T11:11:54;22.70;60.80
51559;DHT22;61650;48.882;2.092;2022-08-05T11:19:52;23.00;56.50
51559;DHT22;61650;48.882;2.092;2022-08-05T11:25:26;23.10;56.50
51559;DHT22;61650;48.882;2.092;2022-08-05T11:27:51;23.50;54.50
51559;DHT22;61650;48.882;2.092;2022-08-05T11:30:17;23.60;60.90
51559;DHT22;61650;48.882;2.092;2022-08-05T11:32:42;23.70;52.20
51559;DHT22;61650;48.882;2.092;2022-08-05T11:38:12;23.60;52.10
51559;DHT22;61650;48.882;2.092;2022-08-05T11:43:21;23.30;56.60
51559;DHT22;61650;48.882;2.092;2022-08-05T11:45:47;23.20;60.30
51559;DHT22;61650;48.882;2.092;2022-08-05T11:48:14;23.00;61.00
51559;DHT22;61650;48.882;2.092;2022-08-05T11:50:39;23.30;59.80
51559;DHT22;61650;48.882;2.092;2022-08-05T11:53:06;23.60;54.20
51559;DHT22;61650;48.882;2.092;2022-08-05T11:55:31;23.90;56.40
51559;DHT22;61650;48.882;2.092;2022-08-05T11:57:57;24.10;60.80
51559;DHT22;61650;48.882;2.092;2022-08-05T12:00:26;24.30;58.80
51559;DHT22;61650;48.882;2.092;2022-08-05T12:02:52;24.30;56.80
51559;DHT22;61650;48.882;2.092;2022-08-05T12:05:25;24.40;51.70
51559;DHT22;61650;48.882;2.092;2022-08-05T12:07:51;24.50;55.00
51559;DHT22;61650;48.882;2.092;2022-08-05T12:10:21;25.10;55.30
51559;DHT22;61650;48.882;2.092;2022-08-05T12:12:49;25.80;46.50
51559;DHT22;61650;48.882;2.092;2022-08-05T12:15:19;25.70;49.80
51559;DHT22;61650;48.882;2.092;2022-08-05T12:17:45;25.70;54.80
51559;DHT22;61650;48.882;2.092;2022-08-05T12:20:11;25.10;47.60
51559;DHT22;61650;48.882;2.092;2022-08-05T12:22:37;24.60;56.60
51559;DHT22;61650;48.882;2.092;2022-08-05T12:25:04;24.30;58.20
51559;DHT22;61650;48.882;2.092;2022-08-05T12:27:30;24.20;57.50
51559;DHT22;61650;48.882;2.092;2022-08-05T12:30:08;24.80;57.30
51559;DHT22;61650;48.882;2.092;2022-08-05T12:32:42;25.60;50.80
51559;DHT22;61650;48.882;2.092;2022-08-05T12:35:09;26.20;54.40
51559;DHT22;61650;48.882;2.092;2022-08-05T12:37:35;26.40;52.00
51559;DHT22;61650;48.882;2.092;2022-08-05T12:40:01;26.10;54.90
51559;DHT22;61650;48.882;2.092;2022-08-05T12:42:29;27.10;53.70
51559;DHT22;61650;48.882;2.092;2022-08-05T12:45:06;27.80;48.70
51559;DHT22;61650;48.882;2.092;2022-08-05T12:47:32;27.40;45.30
51559;DHT22;61650;48.882;2.092;2022-08-05T12:49:59;26.30;54.70
51559;DHT22;61650;48.882;2.092;2022-08-05T12:52:25;25.40;52.50
51559;DHT22;61650;48.882;2.092;2022-08-05T12:54:51;25.10;50.90
51559;DHT22;61650;48.882;2.092;2022-08-05T12:57:17;26.60;50.00
51559;DHT22;61650;48.882;2.092;2022-08-05T12:59:51;28.90;50.70
51559;DHT22;61650;48.882;2.092;2022-08-05T13:02:25;28.30;44.60
51559;DHT22;61650;48.882;2.092;2022-08-05T13:04:53;26.60;45.80
51559;DHT22;61650;48.882;2.092;2022-08-05T13:07:21;25.20;50.00
51559;DHT22;61650;48.882;2.092;2022-08-05T13:12:15;25.10;53.60
51559;DHT22;61650;48.882;2.092;2022-08-05T13:19:38;29.40;48.60
51559;DHT22;61650;48.882;2.092;2022-08-05T13:22:04;29.80;45.90
51559;DHT22;61650;48.882;2.092;2022-08-05T13:24:30;29.10;42.50
51559;DHT22;61650;48.882;2.092;2022-08-05T13:26:55;27.70;44.20
51559;DHT22;61650;48.882;2.092;2022-08-05T13:29:21;26.50;52.90
51559;DHT22;61650;48.882;2.092;2022-08-05T13:31:46;26.80;54.00
51559;DHT22;61650;48.882;2.092;2022-08-05T13:34:13;27.50;39.80
51559;DHT22;61650;48.882;2.092;2022-08-05T13:36:38;28.40;40.40
51559;DHT22;61650;48.882;2.092;2022-08-05T13:39:06;28.10;41.90
51559;DHT22;61650;48.882;2.092;2022-08-05T13:41:31;26.40;47.30
51559;DHT22;61650;48.882;2.092;2022-08-05T13:43:57;25.80;52.30
51559;DHT22;61650;48.882;2.092;2022-08-05T13:46:24;25.60;51.70
51559;DHT22;61650;48.882;2.092;2022-08-05T13:48:49;25.20;49.70
51559;DHT22;61650;48.882;2.092;2022-08-05T13:51:23;25.70;50.50
51559;DHT22;61650;48.882;2.092;2022-08-05T13:53:49;25.90;52.40
51559;DHT22;61650;48.882;2.092;2022-08-05T13:56:15;26.30;51.90
51559;DHT22;61650;48.882;2.092;2022-08-05T13:58:40;26.30;44.90
51559;DHT22;61650;48.882;2.092;2022-08-05T14:01:06;25.80;50.30
51559;DHT22;61650;48.882;2.092;2022-08-05T14:03:31;25.20;44.80
51559;DHT22;61650;48.882;2.092;2022-08-05T14:05:57;25.00;52.60
51559;DHT22;61650;48.882;2.092;2022-08-05T14:08:22;24.70;51.20
51559;DHT22;61650;48.882;2.092;2022-08-05T14:10:48;24.60;50.70
51559;DHT22;61650;48.882;2.092;2022-08-05T14:13:14;24.50;52.60
51559;DHT22;61650;48.882;2.092;2022-08-05T14:15:39;24.50;54.00
51559;DHT22;61650;48.882;2.092;2022-08-05T14:18:05;24.70;51.70
51559;DHT22;61650;48.882;2.092;2022-08-05T14:20:31;24.90;52.20
51559;DHT22;61650;48.882;2.092;2022-08-05T14:22:58;24.80;51.40
51559;DHT22;61650;48.882;2.092;2022-08-05T14:25:24;24.70;51.00
51559;DHT22;61650;48.882;2.092;2022-08-05T14:27:50;24.80;51.60
51559;DHT22;61650;48.882;2.092;2022-08-05T14:30:16;25.20;51.50
51559;DHT22;61650;48.882;2.092;2022-08-05T14:32:42;25.40;50.40
51559;DHT22;61650;48.882;2.092;2022-08-05T14:35:08;25.50;47.40
51559;DHT22;61650;48.882;2.092;2022-08-05T14:37:34;25.60;43.90
51559;DHT22;61650;48.882;2.092;2022-08-05T14:40:00;25.70;43.30
51559;DHT22;61650;48.882;2.092;2022-08-05T14:42:26;25.80;49.60
51559;DHT22;61650;48.882;2.092;2022-08-05T14:44:51;25.90;49.20
51559;DHT22;61650;48.882;2.092;2022-08-05T14:47:17;26.10;40.90
51559;DHT22;61650;48.882;2.092;2022-08-05T14:49:43;26.10;47.20
51559;DHT22;61650;48.882;2.092;2022-08-05T14:52:08;26.10;46.60
51559;DHT22;61650;48.882;2.092;2022-08-05T14:54:34;26.10;45.90
51559;DHT22;61650;48.882;2.092;2022-08-05T14:57:00;26.10;47.70
51559;DHT22;61650;48.882;2.092;2022-08-05T14:59:26;26.10;47.80
51559;DHT22;61650;48.882;2.092;2022-08-05T15:01:52;26.10;46.50
51559;DHT22;61650;48.882;2.092;2022-08-05T15:04:18;25.90;47.60
51559;DHT22;61650;48.882;2.092;2022-08-05T15:06:44;25.50;49.40
51559;DHT22;61650;48.882;2.092;2022-08-05T15:09:10;25.20;45.40
51559;DHT22;61650;48.882;2.092;2022-08-05T15:11:36;24.90;48.50
51559;DHT22;61650;48.882;2.092;2022-08-05T15:14:02;24.70;48.10
51559;DHT22;61650;48.882;2.092;2022-08-05T15:16:28;24.90;51.00
51559;DHT22;61650;48.882;2.092;2022-08-05T15:18:54;25.30;42.10
51559;DHT22;61650;48.882;2.092;2022-08-05T15:21:20;25.60;41.40
51559;DHT22;61650;48.882;2.092;2022-08-05T15:23:45;25.60;48.40
51559;DHT22;61650;48.882;2.092;2022-08-05T15:26:11;25.60;41.00
51559;DHT22;61650;48.882;2.092;2022-08-05T15:28:37;25.50;40.80
51559;DHT22;61650;48.882;2.092;2022-08-05T15:31:02;25.50;45.20
51559;DHT22;61650;48.882;2.092;2022-08-05T15:33:28;25.50;41.50
51559;DHT22;61650;48.882;2.092;2022-08-05T15:35:54;25.50;42.80
51559;DHT22;61650;48.882;2.092;2022-08-05T15:38:20;25.40;44.60
51559;DHT22;61650;48.882;2.092;2022-08-05T15:40:45;25.30;46.00
51559;DHT22;61650;48.882;2.092;2022-08-05T15:43:11;25.20;40.00
51559;DHT22;61650;48.882;2.092;2022-08-05T15:45:37;25.10;45.10
51559;DHT22;61650;48.882;2.092;2022-08-05T15:48:02;25.40;45.60
51559;DHT22;61650;48.882;2.092;2022-08-05T15:50:28;25.50;46.40
51559;DHT22;61650;48.882;2.092;2022-08-05T15:52:54;25.50;45.50
51559;DHT22;61650;48.882;2.092;2022-08-05T15:55:20;25.40;42.70
51559;DHT22;61650;48.882;2.092;2022-08-05T15:57:46;25.50;41.90
51559;DHT22;61650;48.882;2.092;2022-08-05T16:00:12;25.50;47.50
51559;DHT22;61650;48.882;2.092;2022-08-05T16:02:38;25.40;46.40
51559;DHT22;61650;48.882;2.092;2022-08-05T16:05:04;25.30;42.50
51559;DHT22;61650;48.882;2.092;2022-08-05T16:07:30;25.40;45.70
51559;DHT22;61650;48.882;2.092;2022-08-05T16:09:56;25.50;46.30